sensor_id;sensor_type;location;lat;lon;timestamp;temperature;humidity
48416;DHT22;34227;51.840;4.146;2022-09-09T00:01:51;17.90;83.00
48416;DHT22;34227;51.840;4.146;2022-09-09T00:04:28;17.80;82.90
48416;DHT22;34227;51.840;4.146;2022-09-09T00:09:25;17.80;82.90
48416;DHT22;34227;51.840;4.146;2022-09-09T00:11:53;17.80;83.20
48416;DHT22;34227;51.840;4.146;2022-09-09T00:14:38;17.70;83.20
48416;DHT22;34227;51.840;4.146;2022-09-09T00:17:52;17.80;83.10
48416;DHT22;34227;51.840;4.146;2022-09-09T00:20:00;17.70;83.00
48416;DHT22;34227;51.840;4.146;2022-09-09T00:22:27;17.70;83.00
48416;DHT22;34227;51.840;4.146;2022-09-09T00:24:55;17.70;83.20
48416;DHT22;34227;51.840;4.146;2022-09-09T00:32:34;17.60;82.90
48416;DHT22;34227;51.840;4.146;2022-09-09T00:35:12;17.60;83.10
48416;DHT22;34227;51.840;4.146;2022-09-09T00:37:41;17.60;82.90
48416;DHT22;34227;51.840;4.146;2022-09-09T00:40:15;17.60;82.90
48416;DHT22;34227;51.840;4.146;2022-09-09T00:42:42;17.60;82.90
48416;DHT22;34227;51.840;4.146;2022-09-09T00:45:15;17.60;83.10
48416;DHT22;34227;51.840;4.146;2022-09-09T00:55:40;17.60;83.10
48416;DHT22;34227;51.840;4.146;2022-09-09T00:58:07;17.60;83.00
48416;DHT22;34227;51.840;4.146;2022-09-09T01:00:46;17.60;82.70
48416;DHT22;34227;51.840;4.146;2022-09-09T01:06:00;17.50;82.70
48416;DHT22;34227;51.840;4.146;2022-09-09T01:11:00;17.50;83.00
48416;DHT22;34227;51.840;4.146;2022-09-09T01:13:28;17.50;83.10
48416;DHT22;34227;51.840;4.146;2022-09-09T01:15:59;17.50;82.90
48416;DHT22;34227;51.840;4.146;2022-09-09T01:18:29;17.50;83.10
48416;DHT22;34227;51.840;4.146;2022-09-09T01:24:13;17.50;82.90
48416;DHT22;34227;51.840;4.146;2022-09-09T01:26:18;17.50;83.00
48416;DHT22;34227;51.840;4.146;2022-09-09T01:28:45;17.40;83.00
48416;DHT22;34227;51.840;4.146;2022-09-09T01:31:14;17.40;82.90
48416;DHT22;34227;51.840;4.146;2022-09-09T01:33:40;17.40;83.00
48416;DHT22;34227;51.840;4.146;2022-09-09T01:36:10;17.40;83.00
48416;DHT22;34227;51.840;4.146;2022-09-09T01:38:38;17.30;82.90
48416;DHT22;34227;51.840;4.146;2022-09-09T01:41:03;17.40;82.90
48416;DHT22;34227;51.840;4.146;2022-09-09T01:43:29;17.40;83.20
48416;DHT22;34227;51.840;4.146;2022-09-09T01:45:55;17.30;83.10
48416;DHT22;34227;51.840;4.146;2022-09-09T01:48:22;17.30;83.20
48416;DHT22;34227;51.840;4.146;2022-09-09T01:50:48;17.30;83.30
48416;DHT22;34227;51.840;4.146;2022-09-09T01:53:14;17.30;83.20
48416;DHT22;34227;51.840;4.146;2022-09-09T01:55:43;17.30;83.30
48416;DHT22;34227;51.840;4.146;2022-09-09T02:00:41;17.30;83.30
48416;DHT22;34227;51.840;4.146;2022-09-09T02:03:08;17.30;83.30
48416;DHT22;34227;51.840;4.146;2022-09-09T02:05:40;17.20;83.20
48416;DHT22;34227;51.840;4.146;2022-09-09T02:08:07;17.30;83.40
48416;DHT22;34227;51.840;4.146;2022-09-09T02:13:31;17.30;83.50
48416;DHT22;34227;51.840;4.146;2022-09-09T02:16:00;17.20;83.50
48416;DHT22;34227;51.840;4.146;2022-09-09T02:18:42;17.20;83.40
48416;DHT22;34227;51.840;4.146;2022-09-09T02:21:11;17.20;83.40
48416;DHT22;34227;51.840;4.146;2022-09-09T02:23:37;17.20;83.70
48416;DHT22;34227;51.840;4.146;2022-09-09T02:26:05;17.20;83.60
48416;DHT22;34227;51.840;4.146;2022-09-09T02:28:31;17.10;83.40
48416;DHT22;34227;51.840;4.146;2022-09-09T02:30:57;17.10;83.50
48416;DHT22;34227;51.840;4.146;2022-09-09T02:33:27;17.20;83.60
48416;DHT22;34227;51.840;4.146;2022-09-09T02:35:54;17.10;83.30
48416;DHT22;34227;51.840;4.146;2022-09-09T02:38:21;17.10;83.30
48416;DHT22;34227;51.840;4.146;2022-09-09T02:40:51;17.10;83.40
48416;DHT22;34227;51.840;4.146;2022-09-09T02:43:17;17.10;83.50
48416;DHT22;34227;51.840;4.146;2022-09-09T02:45:47;17.10;83.70
48416;DHT22;34227;51.840;4.146;2022-09-09T02:56:31;17.00;83.50
48416;DHT22;34227;51.840;4.146;2022-09-09T02:58:59;17.00;83.90
48416;DHT22;34227;51.840;4.146;2022-09-09T03:01:25;17.00;83.80
48416;DHT22;34227;51.840;4.146;2022-09-09T03:03:50;17.00;83.80
48416;DHT22;34227;51.840;4.146;2022-09-09T03:06:16;16.90;83.60
48416;DHT22;34227;51.840;4.146;2022-09-09T03:08:41;16.90;84.20
48416;DHT22;34227;51.840;4.146;2022-09-09T03:11:07;16.90;84.00
48416;DHT22;34227;51.840;4.146;2022-09-09T03:13:34;16.90;83.80
48416;DHT22;34227;51.840;4.146;2022-09-09T03:15:59;16.90;83.90
48416;DHT22;34227;51.840;4.146;2022-09-09T03:18:25;16.80;83.70
48416;DHT22;34227;51.840;4.146;2022-09-09T03:20:50;16.90;84.00
48416;DHT22;34227;51.840;4.146;2022-09-09T03:23:16;16.80;83.90
48416;DHT22;34227;51.840;4.146;2022-09-09T03:25:49;16.80;84.00
48416;DHT22;34227;51.840;4.146;2022-09-09T03:28:14;16.80;83.90
48416;DHT22;34227;51.840;4.146;2022-09-09T03:30:40;16.80;83.90
48416;DHT22;34227;51.840;4.146;2022-09-09T03:33:06;16.80;84.20
48416;DHT22;34227;51.840;4.146;2022-09-09T03:35:31;16.70;84.20
48416;DHT22;34227;51.840;4.146;2022-09-09T03:37:57;16.70;84.60
48416;DHT22;34227;51.840;4.146;2022-09-09T03:40:22;16.70;84.20
48416;DHT22;34227;51.840;4.146;2022-09-09T03:42:48;16.70;84.30
48416;DHT22;34227;51.840;4.146;2022-09-09T03:45:13;16.70;84.30
48416;DHT22;34227;51.840;4.146;2022-09-09T03:47:39;16.70;84.20
48416;DHT22;34227;51.840;4.146;2022-09-09T03:50:05;16.70;84.50
48416;DHT22;34227;51.840;4.146;2022-09-09T03:52:37;16.70;84.50
48416;DHT22;34227;51.840;4.146;2022-09-09T03:55:03;16.60;84.10
48416;DHT22;34227;51.840;4.146;2022-09-09T03:57:29;16.60;84.40
48416;DHT22;34227;51.840;4.146;2022-09-09T03:59:55;16.60;84.30
48416;DHT22;34227;51.840;4.146;2022-09-09T04:02:21;16.60;84.20
48416;DHT22;34227;51.840;4.146;2022-09-09T04:04:46;16.60;84.30
48416;DHT22;34227;51.840;4.146;2022-09-09T04:07:12;16.60;84.30
48416;DHT22;34227;51.840;4.146;2022-09-09T04:09:38;16.60;84.70
48416;DHT22;34227;51.840;4.146;2022-09-09T04:12:03;16.60;84.50
48416;DHT22;34227;51.840;4.146;2022-09-09T04:14:29;16.60;84.30
48416;DHT22;34227;51.840;4.146;2022-09-09T04:16:55;16.60;84.60
48416;DHT22;34227;51.840;4.146;2022-09-09T04:19:22;16.50;84.60
48416;DHT22;34227;51.840;4.146;2022-09-09T04:21:48;16.60;84.90
48416;DHT22;34227;51.840;4.146;2022-09-09T04:24:15;16.50;84.80
48416;DHT22;34227;51.840;4.146;2022-09-09T04:26:41;16.50;84.80
48416;DHT22;34227;51.840;4.146;2022-09-09T04:29:07;16.50;84.70
48416;DHT22;34227;51.840;4.146;2022-09-09T04:31:32;16.50;84.60
48416;DHT22;34227;51.840;4.146;2022-09-09T04:33:58;16.50;85.00
48416;DHT22;34227;51.840;4.146;2022-09-09T04:36:27;16.50;84.80
48416;DHT22;34227;51.840;4.146;2022-09-09T04:38:53;16.50;84.90
48416;DHT22;34227;51.840;4.146;2022-09-09T04:41:18;16.50;84.90
48416;DHT22;34227;51.840;4.146;2022-09-09T04:43:44;16.50;85.40
48416;DHT22;34227;51.840;4.146;2022-09-09T04:46:10;16.50;85.20
48416;DHT22;34227;51.840;4.146;2022-09-09T04:48:36;16.40;85.00
48416;DHT22;34227;51.840;4.146;2022-09-09T04:51:02;16.40;85.00
48416;DHT22;34227;51.840;4.146;2022-09-09T04:53:29;16.40;84.90
48416;DHT22;34227;51.840;4.146;2022-09-09T04:56:05;16.40;85.40
48416;DHT22;34227;51.840;4.146;2022-09-09T04:58:31;16.40;85.60
48416;DHT22;34227;51.840;4.146;2022-09-09T05:01:06;16.40;85.40
48416;DHT22;34227;51.840;4.146;2022-09-09T05:03:32;16.40;85.30
48416;DHT22;34227;51.840;4.146;2022-09-09T05:06:04;16.40;85.20
48416;DHT22;34227;51.840;4.146;2022-09-09T05:08:30;16.40;85.80
48416;DHT22;34227;51.840;4.146;2022-09-09T05:10:56;16.40;85.70
48416;DHT22;34227;51.840;4.146;2022-09-09T05:13:21;16.40;86.00
48416;DHT22;34227;51.840;4.146;2022-09-09T05:15:51;16.40;86.50
48416;DHT22;34227;51.840;4.146;2022-09-09T05:18:17;16.30;86.40
48416;DHT22;34227;51.840;4.146;2022-09-09T05:20:43;16.30;86.50
48416;DHT22;34227;51.840;4.146;2022-09-09T05:23:09;16.40;86.70
48416;DHT22;34227;51.840;4.146;2022-09-09T05:25:36;16.40;86.60
48416;DHT22;34227;51.840;4.146;2022-09-09T05:28:01;16.40;86.80
48416;DHT22;34227;51.840;4.146;2022-09-09T05:30:27;16.40;87.10
48416;DHT22;34227;51.840;4.146;2022-09-09T05:32:55;16.40;86.60
48416;DHT22;34227;51.840;4.146;2022-09-09T05:35:21;16.40;86.30
48416;DHT22;34227;51.840;4.146;2022-09-09T05:37:49;16.40;86.70
48416;DHT22;34227;51.840;4.146;2022-09-09T05:40:18;16.40;86.50
48416;DHT22;34227;51.840;4.146;2022-09-09T05:42:43;16.40;86.60
48416;DHT22;34227;51.840;4.146;2022-09-09T05:45:09;16.40;86.60
48416;DHT22;34227;51.840;4.146;2022-09-09T05:47:35;16.40;87.10
48416;DHT22;34227;51.840;4.146;2022-09-09T05:50:02;16.40;87.10
48416;DHT22;34227;51.840;4.146;2022-09-09T05:52:28;16.50;87.30
48416;DHT22;34227;51.840;4.146;2022-09-09T05:54:54;16.50;87.60
48416;DHT22;34227;51.840;4.146;2022-09-09T05:57:20;16.50;87.90
48416;DHT22;34227;51.840;4.146;2022-09-09T05:59:46;16.50;88.20
48416;DHT22;34227;51.840;4.146;2022-09-09T06:02:11;16.60;88.60
48416;DHT22;34227;51.840;4.146;2022-09-09T06:04:37;16.50;87.80
48416;DHT22;34227;51.840;4.146;2022-09-09T06:07:04;16.60;88.10
48416;DHT22;34227;51.840;4.146;2022-09-09T06:09:30;16.60;87.80
48416;DHT22;34227;51.840;4.146;2022-09-09T06:11:55;16.60;88.50
48416;DHT22;34227;51.840;4.146;2022-09-09T06:14:23;16.60;88.30
48416;DHT22;34227;51.840;4.146;2022-09-09T06:16:50;16.70;89.00
48416;DHT22;34227;51.840;4.146;2022-09-09T06:19:16;16.70;88.20
48416;DHT22;34227;51.840;4.146;2022-09-09T06:21:44;16.70;87.90
48416;DHT22;34227;51.840;4.146;2022-09-09T06:24:10;16.70;87.80
48416;DHT22;34227;51.840;4.146;2022-09-09T06:26:38;16.80;87.70
48416;DHT22;34227;51.840;4.146;2022-09-09T06:29:07;16.80;88.10
48416;DHT22;34227;51.840;4.146;2022-09-09T06:31:33;16.80;87.50
48416;DHT22;34227;51.840;4.146;2022-09-09T06:33:59;16.80;86.90
48416;DHT22;34227;51.840;4.146;2022-09-09T06:36:26;16.80;87.40
48416;DHT22;34227;51.840;4.146;2022-09-09T06:38:52;16.80;87.30
48416;DHT22;34227;51.840;4.146;2022-09-09T06:41:18;16.80;87.20
48416;DHT22;34227;51.840;4.146;2022-09-09T06:43:44;16.90;88.00
48416;DHT22;34227;51.840;4.146;2022-09-09T06:46:14;16.80;87.80
48416;DHT22;34227;51.840;4.146;2022-09-09T06:48:40;16.90;88.30
48416;DHT22;34227;51.840;4.146;2022-09-09T06:51:11;16.90;87.90
48416;DHT22;34227;51.840;4.146;2022-09-09T06:53:37;16.90;87.80
48416;DHT22;34227;51.840;4.146;2022-09-09T06:56:17;16.90;87.90
48416;DHT22;34227;51.840;4.146;2022-09-09T06:58:43;16.90;88.50
48416;DHT22;34227;51.840;4.146;2022-09-09T07:01:12;16.90;87.60
48416;DHT22;34227;51.840;4.146;2022-09-09T07:03:41;16.90;87.40
48416;DHT22;34227;51.840;4.146;2022-09-09T07:06:20;16.90;87.60
48416;DHT22;34227;51.840;4.146;2022-09-09T07:08:52;16.90;88.00
48416;DHT22;34227;51.840;4.146;2022-09-09T07:11:19;16.90;87.80
48416;DHT22;34227;51.840;4.146;2022-09-09T07:13:45;16.90;88.10
48416;DHT22;34227;51.840;4.146;2022-09-09T07:16:12;16.90;88.50
48416;DHT22;34227;51.840;4.146;2022-09-09T07:18:39;17.00;88.20
48416;DHT22;34227;51.840;4.146;2022-09-09T07:21:05;17.00;87.90
48416;DHT22;34227;51.840;4.146;2022-09-09T07:23:31;17.00;88.60
48416;DHT22;34227;51.840;4.146;2022-09-09T07:25:58;17.00;87.70
48416;DHT22;34227;51.840;4.146;2022-09-09T07:28:24;17.00;88.20
48416;DHT22;34227;51.840;4.146;2022-09-09T07:30:54;17.10;88.50
48416;DHT22;34227;51.840;4.146;2022-09-09T07:33:20;17.10;87.70
48416;DHT22;34227;51.840;4.146;2022-09-09T07:35:45;17.10;88.40
48416;DHT22;34227;51.840;4.146;2022-09-09T07:38:11;17.20;87.50
48416;DHT22;34227;51.840;4.146;2022-09-09T07:40:36;17.20;87.80
48416;DHT22;34227;51.840;4.146;2022-09-09T07:43:02;17.20;87.20
48416;DHT22;34227;51.840;4.146;2022-09-09T07:45:27;17.20;87.60
48416;DHT22;34227;51.840;4.146;2022-09-09T07:47:53;17.30;87.50
48416;DHT22;34227;51.840;4.146;2022-09-09T07:50:22;17.30;87.30
48416;DHT22;34227;51.840;4.146;2022-09-09T07:52:48;17.40;87.00
48416;DHT22;34227;51.840;4.146;2022-09-09T07:55:14;17.40;86.80
48416;DHT22;34227;51.840;4.146;2022-09-09T07:57:40;17.40;87.00
48416;DHT22;34227;51.840;4.146;2022-09-09T08:00:06;17.40;87.00
48416;DHT22;34227;51.840;4.146;2022-09-09T08:02:32;17.40;87.10
48416;DHT22;34227;51.840;4.146;2022-09-09T08:04:58;17.40;87.00
48416;DHT22;34227;51.840;4.146;2022-09-09T08:07:23;17.40;86.80
48416;DHT22;34227;51.840;4.146;2022-09-09T08:09:49;17.50;86.60
48416;DHT22;34227;51.840;4.146;2022-09-09T08:12:15;17.40;86.80
48416;DHT22;34227;51.840;4.146;2022-09-09T08:14:40;17.50;86.60
48416;DHT22;34227;51.840;4.146;2022-09-09T08:17:06;17.50;86.50
48416;DHT22;34227;51.840;4.146;2022-09-09T08:19:31;17.50;86.30
48416;DHT22;34227;51.840;4.146;2022-09-09T08:22:01;17.60;86.90
48416;DHT22;34227;51.840;4.146;2022-09-09T08:24:27;17.50;86.40
48416;DHT22;34227;51.840;4.146;2022-09-09T08:26:52;17.50;86.70
48416;DHT22;34227;51.840;4.146;2022-09-09T08:29:19;17.60;86.70
48416;DHT22;34227;51.840;4.146;2022-09-09T08:31:45;17.60;87.10
48416;DHT22;34227;51.840;4.146;2022-09-09T08:34:12;17.60;86.90
48416;DHT22;34227;51.840;4.146;2022-09-09T08:36:39;17.60;86.50
48416;DHT22;34227;51.840;4.146;2022-09-09T08:39:06;17.60;86.30
48416;DHT22;34227;51.840;4.146;2022-09-09T08:41:44;17.70;86.70
48416;DHT22;34227;51.840;4.146;2022-09-09T08:52:39;17.80;86.80
48416;DHT22;34227;51.840;4.146;2022-09-09T08:55:05;17.80;86.70
48416;DHT22;34227;51.840;4.146;2022-09-09T08:57:38;17.80;86.50
48416;DHT22;34227;51.840;4.146;2022-09-09T09:00:04;17.90;86.50
48416;DHT22;34227;51.840;4.146;2022-09-09T09:05:05;17.90;86.30
48416;DHT22;34227;51.840;4.146;2022-09-09T09:10:10;18.00;86.30
48416;DHT22;34227;51.840;4.146;2022-09-09T09:12:42;18.00;86.30
48416;DHT22;34227;51.840;4.146;2022-09-09T09:15:19;17.90;86.70
48416;DHT22;34227;51.840;4.146;2022-09-09T09:17:46;18.00;87.10
48416;DHT22;34227;51.840;4.146;2022-09-09T09:20:12;18.00;87.10
48416;DHT22;34227;51.840;4.146;2022-09-09T09:22:42;18.00;87.10
48416;DHT22;34227;51.840;4.146;2022-09-09T09:30:19;18.00;86.80
48416;DHT22;34227;51.840;4.146;2022-09-09T09:32:51;17.90;86.50
48416;DHT22;34227;51.840;4.146;2022-09-09T09:35:18;17.90;87.10
48416;DHT22;34227;51.840;4.146;2022-09-09T09:37:44;18.00;87.60
48416;DHT22;34227;51.840;4.146;2022-09-09T09:42:35;17.90;87.80
48416;DHT22;34227;51.840;4.146;2022-09-09T09:45:14;17.90;87.80
48416;DHT22;34227;51.840;4.146;2022-09-09T09:47:41;17.90;88.00
48416;DHT22;34227;51.840;4.146;2022-09-09T09:50:17;17.90;87.80
48416;DHT22;34227;51.840;4.146;2022-09-09T09:52:51;17.90;87.80
48416;DHT22;34227;51.840;4.146;2022-09-09T09:55:18;17.90;87.80
48416;DHT22;34227;51.840;4.146;2022-09-09T09:57:44;17.90;88.60
48416;DHT22;34227;51.840;4.146;2022-09-09T10:00:13;17.90;88.60
48416;DHT22;34227;51.840;4.146;2022-09-09T10:02:40;17.90;88.70
48416;DHT22;34227;51.840;4.146;2022-09-09T10:07:34;17.90;88.10
48416;DHT22;34227;51.840;4.146;2022-09-09T10:09:59;18.00;88.50
48416;DHT22;34227;51.840;4.146;2022-09-09T10:22:50;18.10;88.60
48416;DHT22;34227;51.840;4.146;2022-09-09T10:30:37;18.20;88.60
48416;DHT22;34227;51.840;4.146;2022-09-09T10:33:10;18.20;87.80
48416;DHT22;34227;51.840;4.146;2022-09-09T10:35:50;18.20;88.90
48416;DHT22;34227;51.840;4.146;2022-09-09T10:38:18;18.30;88.30
48416;DHT22;34227;51.840;4.146;2022-09-09T10:46:22;18.40;89.20
48416;DHT22;34227;51.840;4.146;2022-09-09T10:48:53;18.50;88.70
48416;DHT22;34227;51.840;4.146;2022-09-09T10:56:34;18.60;88.20
48416;DHT22;34227;51.840;4.146;2022-09-09T10:59:12;18.70;87.90
48416;DHT22;34227;51.840;4.146;2022-09-09T11:01:43;18.70;87.60
48416;DHT22;34227;51.840;4.146;2022-09-09T11:04:15;18.70;87.90
48416;DHT22;34227;51.840;4.146;2022-09-09T11:06:44;18.70;87.30
48416;DHT22;34227;51.840;4.146;2022-09-09T11:09:14;18.80;87.20
48416;DHT22;34227;51.840;4.146;2022-09-09T11:12:02;18.80;86.80
48416;DHT22;34227;51.840;4.146;2022-09-09T11:14:32;18.80;87.20
48416;DHT22;34227;51.840;4.146;2022-09-09T11:17:00;18.80;87.40
48416;DHT22;34227;51.840;4.146;2022-09-09T11:21:52;18.80;87.30
48416;DHT22;34227;51.840;4.146;2022-09-09T11:24:23;18.80;87.00
48416;DHT22;34227;51.840;4.146;2022-09-09T11:29:25;18.80;86.80
48416;DHT22;34227;51.840;4.146;2022-09-09T11:31:59;18.80;86.60
48416;DHT22;34227;51.840;4.146;2022-09-09T11:44:39;18.80;86.30
48416;DHT22;34227;51.840;4.146;2022-09-09T11:47:28;18.80;86.20
48416;DHT22;34227;51.840;4.146;2022-09-09T11:49:54;18.80;86.20
48416;DHT22;34227;51.840;4.146;2022-09-09T11:55:24;18.80;86.40
48416;DHT22;34227;51.840;4.146;2022-09-09T11:57:57;18.80;86.20
48416;DHT22;34227;51.840;4.146;2022-09-09T12:00:36;18.80;86.40
48416;DHT22;34227;51.840;4.146;2022-09-09T12:03:03;18.80;86.20
48416;DHT22;34227;51.840;4.146;2022-09-09T12:05:42;18.80;86.70
48416;DHT22;34227;51.840;4.146;2022-09-09T12:08:10;18.80;87.00
48416;DHT22;34227;51.840;4.146;2022-09-09T12:10:39;18.80;87.00
48416;DHT22;34227;51.840;4.146;2022-09-09T12:13:15;18.90;86.80
48416;DHT22;34227;51.840;4.146;2022-09-09T12:16:02;18.90;87.10
48416;DHT22;34227;51.840;4.146;2022-09-09T12:18:34;18.90;87.10
48416;DHT22;34227;51.840;4.146;2022-09-09T12:21:06;18.90;86.70
48416;DHT22;34227;51.840;4.146;2022-09-09T12:29:36;18.90;87.20
48416;DHT22;34227;51.840;4.146;2022-09-09T12:36:52;19.00;87.90
48416;DHT22;34227;51.840;4.146;2022-09-09T12:39:28;19.00;88.10
48416;DHT22;34227;51.840;4.146;2022-09-09T12:41:55;19.10;87.50
48416;DHT22;34227;51.840;4.146;2022-09-09T12:44:22;19.10;87.50
48416;DHT22;34227;51.840;4.146;2022-09-09T12:46:48;19.20;87.50
48416;DHT22;34227;51.840;4.146;2022-09-09T12:51:48;19.20;87.70
48416;DHT22;34227;51.840;4.146;2022-09-09T12:54:14;19.30;88.20
48416;DHT22;34227;51.840;4.146;2022-09-09T12:56:44;19.30;88.00
48416;DHT22;34227;51.840;4.146;2022-09-09T12:59:17;19.30;88.40
48416;DHT22;34227;51.840;4.146;2022-09-09T13:01:54;19.40;88.00
48416;DHT22;34227;51.840;4.146;2022-09-09T13:04:20;19.50;87.80
48416;DHT22;34227;51.840;4.146;2022-09-09T13:06:47;19.50;87.80
48416;DHT22;34227;51.840;4.146;2022-09-09T13:09:12;19.50;87.70
48416;DHT22;34227;51.840;4.146;2022-09-09T13:11:42;19.50;87.50
48416;DHT22;34227;51.840;4.146;2022-09-09T13:14:12;19.50;88.00
48416;DHT22;34227;51.840;4.146;2022-09-09T13:16:53;19.50;87.80
48416;DHT22;34227;51.840;4.146;2022-09-09T13:19:19;19.50;87.30
48416;DHT22;34227;51.840;4.146;2022-09-09T13:21:46;19.50;87.10
48416;DHT22;34227;51.840;4.146;2022-09-09T13:24:26;19.40;87.10
48416;DHT22;34227;51.840;4.146;2022-09-09T13:26:55;19.40;87.00
48416;DHT22;34227;51.840;4.146;2022-09-09T13:29:21;19.40;86.80
48416;DHT22;34227;51.840;4.146;2022-09-09T13:31:47;19.40;86.70
48416;DHT22;34227;51.840;4.146;2022-09-09T13:34:13;19.30;86.60
48416;DHT22;34227;51.840;4.146;2022-09-09T13:36:39;19.30;86.40
48416;DHT22;34227;51.840;4.146;2022-09-09T13:39:13;19.30;86.20
48416;DHT22;34227;51.840;4.146;2022-09-09T13:41:43;19.20;86.40
48416;DHT22;34227;51.840;4.146;2022-09-09T13:46:58;19.30;86.60
48416;DHT22;34227;51.840;4.146;2022-09-09T13:49:24;19.20;86.30
48416;DHT22;34227;51.840;4.146;2022-09-09T13:52:02;19.20;86.40
48416;DHT22;34227;51.840;4.146;2022-09-09T13:54:28;19.20;86.10
48416;DHT22;34227;51.840;4.146;2022-09-09T13:56:56;19.20;86.20
48416;DHT22;34227;51.840;4.146;2022-09-09T13:59:21;19.20;86.40
48416;DHT22;34227;51.840;4.146;2022-09-09T14:01:47;19.20;86.60
48416;DHT22;34227;51.840;4.146;2022-09-09T14:04:14;19.20;86.30
48416;DHT22;34227;51.840;4.146;2022-09-09T14:06:41;19.20;86.70
48416;DHT22;34227;51.840;4.146;2022-09-09T14:09:07;19.20;87.30
48416;DHT22;34227;51.840;4.146;2022-09-09T14:11:33;19.30;87.10
48416;DHT22;34227;51.840;4.146;2022-09-09T14:13:59;19.30;87.40
48416;DHT22;34227;51.840;4.146;2022-09-09T14:16:26;19.30;87.30
48416;DHT22;34227;51.840;4.146;2022-09-09T14:18:53;19.40;87.70
48416;DHT22;34227;51.840;4.146;2022-09-09T14:21:18;19.40;87.90
48416;DHT22;34227;51.840;4.146;2022-09-09T14:23:44;19.40;87.70
48416;DHT22;34227;51.840;4.146;2022-09-09T14:26:09;19.50;87.80
48416;DHT22;34227;51.840;4.146;2022-09-09T14:28:35;19.50;87.40
48416;DHT22;34227;51.840;4.146;2022-09-09T14:31:01;19.50;87.90
48416;DHT22;34227;51.840;4.146;2022-09-09T14:33:27;19.60;87.30
48416;DHT22;34227;51.840;4.146;2022-09-09T14:35:58;19.60;87.50
48416;DHT22;34227;51.840;4.146;2022-09-09T14:38:24;19.60;87.20
48416;DHT22;34227;51.840;4.146;2022-09-09T14:40:50;19.70;86.90
48416;DHT22;34227;51.840;4.146;2022-09-09T14:43:15;19.70;86.60
48416;DHT22;34227;51.840;4.146;2022-09-09T14:45:41;19.70;86.90
48416;DHT22;34227;51.840;4.146;2022-09-09T14:48:06;19.70;86.60
48416;DHT22;34227;51.840;4.146;2022-09-09T14:50:32;19.80;86.60
48416;DHT22;34227;51.840;4.146;2022-09-09T14:53:00;19.80;86.30
48416;DHT22;34227;51.840;4.146;2022-09-09T14:55:25;19.80;86.40
48416;DHT22;34227;51.840;4.146;2022-09-09T14:57:53;19.80;86.60
48416;DHT22;34227;51.840;4.146;2022-09-09T15:00:19;19.80;86.20
48416;DHT22;34227;51.840;4.146;2022-09-09T15:02:45;19.80;86.20
48416;DHT22;34227;51.840;4.146;2022-09-09T15:05:10;19.80;86.00
48416;DHT22;34227;51.840;4.146;2022-09-09T15:07:36;19.70;85.80
48416;DHT22;34227;51.840;4.146;2022-09-09T15:10:03;19.80;85.90
48416;DHT22;34227;51.840;4.146;2022-09-09T15:12:29;19.70;85.90
48416;DHT22;34227;51.840;4.146;2022-09-09T15:14:55;19.70;85.70
48416;DHT22;34227;51.840;4.146;2022-09-09T15:17:21;19.70;86.00
48416;DHT22;34227;51.840;4.146;2022-09-09T15:19:46;19.70;85.70
48416;DHT22;34227;51.840;4.146;2022-09-09T15:22:12;19.70;86.30
48416;DHT22;34227;51.840;4.146;2022-09-09T15:24:37;19.80;86.20
48416;DHT22;34227;51.840;4.146;2022-09-09T15:27:03;19.70;86.20
48416;DHT22;34227;51.840;4.146;2022-09-09T15:29:28;19.70;86.10
48416;DHT22;34227;51.840;4.146;2022-09-09T15:31:54;19.70;86.10
48416;DHT22;34227;51.840;4.146;2022-09-09T15:34:20;19.70;86.20
48416;DHT22;34227;51.840;4.146;2022-09-09T15:36:46;19.70;86.20
48416;DHT22;34227;51.840;4.146;2022-09-09T15:39:12;19.70;86.20
48416;DHT22;34227;51.840;4.146;2022-09-09T15:41:41;19.60;86.20
48416;DHT22;34227;51.840;4.146;2022-09-09T15:44:07;19.70;86.20
48416;DHT22;34227;51.840;4.146;2022-09-09T15:46:33;19.60;86.50
48416;DHT22;34227;51.840;4.146;2022-09-09T15:49:03;19.60;86.30
48416;DHT22;34227;51.840;4.146;2022-09-09T15:51:29;19.60;86.30
48416;DHT22;34227;51.840;4.146;2022-09-09T15:53:55;19.60;86.30
48416;DHT22;34227;51.840;4.146;2022-09-09T15:56:21;19.50;86.30
48416;DHT22;34227;51.840;4.146;2022-09-09T15:58:47;19.50;86.10
48416;DHT22;34227;51.840;4.146;2022-09-09T16:01:13;19.50;86.30
48416;DHT22;34227;51.840;4.146;2022-09-09T16:03:39;19.50;86.30
48416;DHT22;34227;51.840;4.146;2022-09-09T16:06:06;19.50;86.10
48416;DHT22;34227;51.840;4.146;2022-09-09T16:08:36;19.50;86.00
48416;DHT22;34227;51.840;4.146;2022-09-09T16:11:09;19.50;86.00
48416;DHT22;34227;51.840;4.146;2022-09-09T16:13:36;19.50;86.40
48416;DHT22;34227;51.840;4.146;2022-09-09T16:16:02;19.50;86.60
48416;DHT22;34227;51.840;4.146;2022-09-09T16:18:42;19.50;86.50
48416;DHT22;34227;51.840;4.146;2022-09-09T16:21:08;19.50;86.20
48416;DHT22;34227;51.840;4.146;2022-09-09T16:23:38;19.50;86.80
48416;DHT22;34227;51.840;4.146;2022-09-09T16:26:04;19.50;86.40
48416;DHT22;34227;51.840;4.146;2022-09-09T16:28:30;19.50;86.20
48416;DHT22;34227;51.840;4.146;2022-09-09T16:30:55;19.50;86.00
48416;DHT22;34227;51.840;4.146;2022-09-09T16:33:23;19.50;85.70
48416;DHT22;34227;51.840;4.146;2022-09-09T16:35:49;19.50;85.80
48416;DHT22;34227;51.840;4.146;2022-09-09T16:38:14;19.50;86.30
48416;DHT22;34227;51.840;4.146;2022-09-09T16:40:40;19.50;86.00
48416;DHT22;34227;51.840;4.146;2022-09-09T16:43:08;19.40;86.00
48416;DHT22;34227;51.840;4.146;2022-09-09T16:45:41;19.40;86.00
48416;DHT22;34227;51.840;4.146;2022-09-09T16:48:06;19.30;86.10
48416;DHT22;34227;51.840;4.146;2022-09-09T16:50:32;19.30;86.10
48416;DHT22;34227;51.840;4.146;2022-09-09T16:52:57;19.30;86.50
48416;DHT22;34227;51.840;4.146;2022-09-09T16:55:23;19.30;86.60
48416;DHT22;34227;51.840;4.146;2022-09-09T16:57:51;19.30;87.00
48416;DHT22;34227;51.840;4.146;2022-09-09T17:00:19;19.20;87.10
48416;DHT22;34227;51.840;4.146;2022-09-09T17:02:44;19.20;87.30
48416;DHT22;34227;51.840;4.146;2022-09-09T17:05:10;19.10;87.60
48416;DHT22;34227;51.840;4.146;2022-09-09T17:07:37;19.00;87.80
48416;DHT22;34227;51.840;4.146;2022-09-09T17:10:03;19.00;87.80
48416;DHT22;34227;51.840;4.146;2022-09-09T17:12:29;19.00;87.90
48416;DHT22;34227;51.840;4.146;2022-09-09T17:14:54;19.00;88.20
48416;DHT22;34227;51.840;4.146;2022-09-09T17:17:20;18.90;88.20
48416;DHT22;34227;51.840;4.146;2022-09-09T17:19:46;18.90;88.20
48416;DHT22;34227;51.840;4.146;2022-09-09T17:22:12;18.90;88.20
48416;DHT22;34227;51.840;4.146;2022-09-09T17:24:37;18.80;88.20
48416;DHT22;34227;51.840;4.146;2022-09-09T17:27:04;18.80;88.20
48416;DHT22;34227;51.840;4.146;2022-09-09T17:29:29;18.80;88.40
48416;DHT22;34227;51.840;4.146;2022-09-09T17:31:55;18.80;88.40
48416;DHT22;34227;51.840;4.146;2022-09-09T17:34:21;18.80;88.80
48416;DHT22;34227;51.840;4.146;2022-09-09T17:36:46;18.80;89.10